Time;durP1;ratioP1;P1;durP2;ratioP2;P2;SDS_P1;SDS_P2;PMS_P1;PMS_P2;Temp;Humidity;BMP_temperature;BMP_pressure;BME280_temperature;BME280_humidity;BME280_pressure;Samples;Min_cycle;Max_cycle;Signal;HPM_P1;HPM_P2
2022/07/24 00:00:10;;;;;;;6.63;6.03;;;;;;;;;;5053598;28;20387;-76
2022/07/24 00:02:36;;;;;;;6.97;5.20;;;;;;;;;;5053085;28;20391;-76
2022/07/24 00:05:02;;;;;;;6.00;5.40;;;;;;;;;;5053404;28;20451;-75
2022/07/24 00:07:28;;;;;;;8.20;6.30;;;;;;;;;;5053364;28;20387;-75
2022/07/24 00:09:54;;;;;;;11.60;5.93;;;;;;;;;;5053183;28;20807;-76
2022/07/24 00:12:20;;;;;;;9.23;6.00;;;;;;;;;;5052925;28;20461;-76
2022/07/24 00:14:46;;;;;;;6.80;6.03;;;;;;;;;;5052072;28;20455;-75
2022/07/24 00:17:12;;;;;;;8.70;7.00;;;;;;;;;;5053015;28;20416;-75
2022/07/24 00:19:38;;;;;;;7.23;6.10;;;;;;;;;;5052007;28;20439;-76
2022/07/24 00:22:04;;;;;;;8.03;6.43;;;;;;;;;;5053257;28;20421;-75
2022/07/24 00:24:30;;;;;;;8.03;6.33;;;;;;;;;;5052708;28;20511;-76
2022/07/24 00:26:56;;;;;;;7.33;5.87;;;;;;;;;;5053195;28;20436;-76
2022/07/24 00:29:22;;;;;;;6.43;5.83;;;;;;;;;;5053029;28;20398;-76
2022/07/24 00:31:49;;;;;;;6.47;5.87;;;;;;;;;;5053050;28;20558;-75
2022/07/24 00:34:15;;;;;;;9.37;6.20;;;;;;;;;;5052619;28;20511;-75
2022/07/24 00:36:43;;;;;;;7.30;6.60;;;;;;;;;;5052960;28;20932;-75
2022/07/24 00:39:09;;;;;;;10.43;6.47;;;;;;;;;;5052873;28;20421;-75
2022/07/24 00:41:35;;;;;;;9.13;7.50;;;;;;;;;;5052880;28;20420;-75
2022/07/24 00:44:03;;;;;;;7.97;7.17;;;;;;;;;;5052460;28;20436;-76
2022/07/24 00:46:30;;;;;;;10.93;6.90;;;;;;;;;;5052851;28;20463;-75
2022/07/24 00:48:56;;;;;;;11.23;6.97;;;;;;;;;;5052812;28;20389;-76
2022/07/24 00:51:22;;;;;;;7.33;6.60;;;;;;;;;;5052606;28;20439;-76
2022/07/24 00:53:48;;;;;;;8.40;6.43;;;;;;;;;;5052584;28;20439;-75
2022/07/24 00:56:14;;;;;;;10.73;7.13;;;;;;;;;;5052687;28;20463;-75
2022/07/24 00:58:40;;;;;;;11.17;7.50;;;;;;;;;;5056209;28;20388;-75
2022/07/24 01:01:06;;;;;;;8.17;6.10;;;;;;;;;;5056699;28;20456;-76
2022/07/24 01:03:32;;;;;;;9.90;6.40;;;;;;;;;;5056016;28;20928;-75
2022/07/24 01:05:58;;;;;;;7.30;6.60;;;;;;;;;;5056513;28;20453;-75
2022/07/24 01:08:25;;;;;;;7.73;7.03;;;;;;;;;;5056372;28;20408;-76
2022/07/24 01:10:51;;;;;;;8.87;7.80;;;;;;;;;;5056445;28;20464;-76
2022/07/24 01:13:17;;;;;;;15.00;7.40;;;;;;;;;;5055167;28;20447;-75
2022/07/24 01:15:43;;;;;;;7.93;6.30;;;;;;;;;;5055429;28;20395;-76
2022/07/24 01:18:09;;;;;;;7.70;6.90;;;;;;;;;;5056538;28;20412;-75
2022/07/24 01:20:39;;;;;;;6.27;5.67;;;;;;;;;;5055271;28;20769;-76
2022/07/24 01:23:05;;;;;;;11.17;6.80;;;;;;;;;;5055665;28;20439;-75
2022/07/24 01:25:31;;;;;;;10.67;7.20;;;;;;;;;;5056243;28;20390;-76
2022/07/24 01:27:57;;;;;;;8.13;7.30;;;;;;;;;;5056044;28;20412;-75
2022/07/24 01:30:23;;;;;;;7.40;6.70;;;;;;;;;;5056061;28;20824;-75
2022/07/24 01:32:49;;;;;;;8.93;7.50;;;;;;;;;;5055696;28;20411;-76
2022/07/24 01:35:15;;;;;;;8.73;6.70;;;;;;;;;;5055973;28;20893;-76
2022/07/24 01:37:41;;;;;;;9.97;7.87;;;;;;;;;;5055915;28;20811;-75
2022/07/24 01:40:07;;;;;;;9.40;6.80;;;;;;;;;;5055913;28;20427;-75
2022/07/24 01:42:33;;;;;;;9.97;6.20;;;;;;;;;;5055506;28;20396;-75
2022/07/24 01:44:59;;;;;;;12.30;7.60;;;;;;;;;;5055772;28;20441;-75
2022/07/24 01:47:25;;;;;;;7.67;6.80;;;;;;;;;;5055873;28;20395;-76
2022/07/24 01:49:51;;;;;;;8.60;7.20;;;;;;;;;;5055587;28;20439;-76
2022/07/24 01:52:17;;;;;;;8.77;6.43;;;;;;;;;;5055201;28;20486;-76
2022/07/24 01:54:43;;;;;;;8.20;7.40;;;;;;;;;;5055634;28;20399;-75
2022/07/24 01:57:09;;;;;;;8.80;7.20;;;;;;;;;;5055541;28;20416;-76
2022/07/24 01:59:35;;;;;;;7.50;6.80;;;;;;;;;;5054449;28;20412;-75
2022/07/24 02:02:01;;;;;;;8.40;7.53;;;;;;;;;;5055726;28;20444;-77
2022/07/24 02:04:27;;;;;;;7.90;7.13;;;;;;;;;;5055077;28;20433;-75
2022/07/24 02:06:54;;;;;;;9.40;7.17;;;;;;;;;;5055550;28;20409;-75
2022/07/24 02:09:19;;;;;;;9.80;8.20;;;;;;;;;;5054314;28;20384;-75
2022/07/24 02:11:45;;;;;;;8.27;7.40;;;;;;;;;;5055466;28;20445;-75
2022/07/24 02:14:11;;;;;;;9.50;7.83;;;;;;;;;;5054870;28;20403;-76
2022/07/24 02:16:37;;;;;;;9.00;7.70;;;;;;;;;;5055503;28;20384;-75
2022/07/24 02:19:03;;;;;;;9.90;8.00;;;;;;;;;;5055237;28;20459;-75
2022/07/24 02:21:30;;;;;;;8.50;7.67;;;;;;;;;;5055140;28;20387;-75
2022/07/24 02:23:56;;;;;;;10.63;7.97;;;;;;;;;;5054746;28;20756;-76
2022/07/24 02:26:22;;;;;;;8.27;7.43;;;;;;;;;;5055180;28;20416;-75
2022/07/24 02:28:48;;;;;;;8.83;7.77;;;;;;;;;;5055224;28;20387;-76
2022/07/24 02:31:14;;;;;;;8.40;7.60;;;;;;;;;;5054997;28;20468;-75
2022/07/24 02:33:40;;;;;;;10.00;8.50;;;;;;;;;;5054644;28;20523;-75
2022/07/24 02:36:07;;;;;;;8.53;7.73;;;;;;;;;;5054687;28;20467;-78
2022/07/24 02:38:33;;;;;;;10.40;8.57;;;;;;;;;;5054845;28;20509;-76
2022/07/24 02:40:59;;;;;;;8.80;8.00;;;;;;;;;;5054922;28;20406;-75
2022/07/24 02:43:25;;;;;;;8.13;7.43;;;;;;;;;;5054351;28;20432;-76
2022/07/24 02:45:51;;;;;;;8.60;7.47;;;;;;;;;;5054828;28;20439;-76
2022/07/24 02:48:17;;;;;;;10.90;8.10;;;;;;;;;;5054573;28;20416;-75
2022/07/24 02:50:43;;;;;;;7.97;7.17;;;;;;;;;;5054489;28;20442;-76
2022/07/24 02:53:09;;;;;;;9.03;8.10;;;;;;;;;;5054073;28;20419;-76
2022/07/24 02:55:35;;;;;;;10.27;7.60;;;;;;;;;;5054574;28;20872;-76
2022/07/24 02:58:01;;;;;;;10.37;8.43;;;;;;;;;;5054710;28;20408;-76
2022/07/24 03:00:27;;;;;;;9.60;7.43;;;;;;;;;;5054324;28;20470;-76
2022/07/24 03:02:53;;;;;;;10.97;7.57;;;;;;;;;;5054102;28;20456;-75
2022/07/24 03:05:20;;;;;;;10.80;8.00;;;;;;;;;;5054366;28;20466;-75
2022/07/24 03:07:46;;;;;;;9.13;8.23;;;;;;;;;;5054300;28;20391;-75
2022/07/24 03:10:13;;;;;;;8.37;7.43;;;;;;;;;;5054165;28;20981;-76
2022/07/24 03:12:39;;;;;;;8.20;7.40;;;;;;;;;;5053775;28;20519;-76
2022/07/24 03:15:05;;;;;;;8.27;7.40;;;;;;;;;;5054358;28;20450;-75
2022/07/24 03:17:31;;;;;;;9.70;8.53;;;;;;;;;;5054036;28;20755;-76
2022/07/24 03:19:57;;;;;;;12.00;8.63;;;;;;;;;;5053753;28;20391;-75
2022/07/24 03:22:23;;;;;;;9.77;7.83;;;;;;;;;;5052610;28;20775;-75
2022/07/24 03:24:49;;;;;;;9.63;7.60;;;;;;;;;;5054051;28;20441;-75
2022/07/24 03:27:15;;;;;;;12.53;8.13;;;;;;;;;;5054067;28;20384;-76
2022/07/24 03:29:41;;;;;;;12.20;9.27;;;;;;;;;;5053956;28;20521;-75
2022/07/24 03:32:07;;;;;;;9.60;7.47;;;;;;;;;;5053859;28;20423;-75
2022/07/24 03:34:33;;;;;;;9.00;7.77;;;;;;;;;;5053445;28;20437;-75
2022/07/24 03:36:59;;;;;;;15.03;8.67;;;;;;;;;;5054023;28;20491;-76
2022/07/24 03:39:25;;;;;;;8.10;7.37;;;;;;;;;;5053786;28;20474;-75
2022/07/24 03:41:51;;;;;;;9.43;8.53;;;;;;;;;;5053854;28;20415;-75
2022/07/24 03:44:17;;;;;;;8.83;7.83;;;;;;;;;;5053221;28;20961;-76
2022/07/24 03:46:43;;;;;;;9.07;7.80;;;;;;;;;;5053513;28;20415;-75
2022/07/24 03:49:09;;;;;;;9.50;8.70;;;;;;;;;;5053543;28;20717;-75
2022/07/24 03:51:35;;;;;;;9.67;7.60;;;;;;;;;;5053379;28;20837;-75
2022/07/24 03:54:02;;;;;;;8.10;7.23;;;;;;;;;;5053134;28;20468;-76
2022/07/24 03:56:28;;;;;;;9.47;8.47;;;;;;;;;;5053527;28;20470;-75
2022/07/24 03:58:54;;;;;;;9.60;7.97;;;;;;;;;;5053309;28;20524;-76
2022/07/24 04:01:21;;;;;;;8.90;8.10;;;;;;;;;;5053369;28;20745;-75
2022/07/24 04:03:47;;;;;;;8.57;7.77;;;;;;;;;;5053334;28;20408;-75
2022/07/24 04:06:13;;;;;;;8.90;8.10;;;;;;;;;;5053626;28;20718;-75
2022/07/24 04:08:39;;;;;;;11.83;7.67;;;;;;;;;;5052233;28;20424;-75
2022/07/24 04:11:07;;;;;;;9.70;8.43;;;;;;;;;;5053238;28;20431;-75
2022/07/24 04:13:33;;;;;;;9.40;7.90;;;;;;;;;;5053175;28;20410;-74
2022/07/24 04:16:00;;;;;;;9.43;8.50;;;;;;;;;;5053317;28;20394;-75
2022/07/24 04:18:26;;;;;;;8.93;8.13;;;;;;;;;;5053349;28;20452;-75
2022/07/24 04:20:52;;;;;;;7.87;7.17;;;;;;;;;;5053192;28;20547;-75
2022/07/24 04:23:18;;;;;;;9.10;8.00;;;;;;;;;;5052704;28;20507;-76
2022/07/24 04:25:44;;;;;;;8.27;7.53;;;;;;;;;;5053348;28;20868;-76
2022/07/24 04:28:10;;;;;;;10.00;8.00;;;;;;;;;;5053114;28;20502;-75
2022/07/24 04:30:36;;;;;;;9.10;7.60;;;;;;;;;;5053045;28;20468;-75
2022/07/24 04:33:02;;;;;;;9.87;8.87;;;;;;;;;;5055319;28;20439;-75
2022/07/24 04:35:28;;;;;;;8.47;7.77;;;;;;;;;;5057137;28;20826;-75
2022/07/24 04:37:54;;;;;;;8.10;7.00;;;;;;;;;;5057205;28;20387;-75
2022/07/24 04:40:20;;;;;;;7.33;6.63;;;;;;;;;;5057130;28;20831;-75
2022/07/24 04:42:46;;;;;;;9.00;8.17;;;;;;;;;;5056641;28;20419;-75
2022/07/24 04:45:12;;;;;;;9.20;7.97;;;;;;;;;;5056824;28;20928;-75
2022/07/24 04:47:39;;;;;;;8.53;7.73;;;;;;;;;;5056924;28;20435;-75
2022/07/24 04:50:06;;;;;;;10.40;7.40;;;;;;;;;;5056882;28;20459;-75
2022/07/24 04:52:32;;;;;;;9.03;7.70;;;;;;;;;;5056439;28;20428;-75
2022/07/24 04:54:57;;;;;;;11.70;7.30;;;;;;;;;;5056923;28;20399;-76
2022/07/24 04:57:24;;;;;;;13.60;6.93;;;;;;;;;;5056568;28;20387;-75
2022/07/24 04:59:50;;;;;;;9.20;8.10;;;;;;;;;;5057056;28;20390;-75
2022/07/24 05:02:16;;;;;;;7.37;6.67;;;;;;;;;;5057642;28;20409;-78
2022/07/24 05:04:42;;;;;;;7.70;6.53;;;;;;;;;;5059061;28;20411;-76
2022/07/24 05:07:08;;;;;;;8.40;7.60;;;;;;;;;;5057393;28;20507;-75
2022/07/24 05:09:34;;;;;;;8.80;6.53;;;;;;;;;;5056482;28;20416;-75
2022/07/24 05:12:00;;;;;;;9.00;7.40;;;;;;;;;;5056446;28;20459;-75
2022/07/24 05:14:26;;;;;;;8.47;7.67;;;;;;;;;;5056104;28;20895;-75
2022/07/24 05:16:52;;;;;;;8.17;7.40;;;;;;;;;;5056580;28;20387;-75
2022/07/24 05:19:18;;;;;;;8.63;6.80;;;;;;;;;;5056691;28;20408;-76
2022/07/24 05:21:44;;;;;;;9.10;7.53;;;;;;;;;;5056307;28;20452;-76
2022/07/24 05:24:10;;;;;;;9.07;7.27;;;;;;;;;;5056039;28;20471;-75
2022/07/24 05:26:36;;;;;;;9.97;7.70;;;;;;;;;;5056505;28;20387;-75
2022/07/24 05:29:05;;;;;;;7.40;6.73;;;;;;;;;;5056365;28;20468;-75
2022/07/24 05:31:32;;;;;;;7.17;6.43;;;;;;;;;;5056127;28;20449;-75
2022/07/24 05:33:58;;;;;;;8.40;7.37;;;;;;;;;;5055821;28;20494;-75
2022/07/24 05:36:24;;;;;;;9.33;6.43;;;;;;;;;;5056167;28;20474;-76
2022/07/24 05:38:50;;;;;;;7.47;6.77;;;;;;;;;;5056064;28;20379;-75
2022/07/24 05:41:17;;;;;;;8.53;7.10;;;;;;;;;;5055970;28;20545;-75
2022/07/24 05:43:43;;;;;;;9.37;6.83;;;;;;;;;;5055111;28;20447;-76
2022/07/24 05:46:09;;;;;;;7.87;7.17;;;;;;;;;;5054849;28;20419;-75
2022/07/24 05:48:35;;;;;;;7.33;6.60;;;;;;;;;;5055886;28;20474;-75
2022/07/24 05:51:01;;;;;;;8.70;7.57;;;;;;;;;;5054410;28;20988;-75
2022/07/24 05:53:27;;;;;;;8.03;7.13;;;;;;;;;;5055229;28;20952;-75
2022/07/24 05:55:53;;;;;;;7.37;6.70;;;;;;;;;;5055432;28;20405;-76
2022/07/24 05:58:19;;;;;;;8.90;6.40;;;;;;;;;;5037940;28;20463;-75
2022/07/24 06:00:45;;;;;;;8.03;6.60;;;;;;;;;;5055671;28;20799;-75
2022/07/24 06:03:11;;;;;;;8.80;7.27;;;;;;;;;;5055086;28;20439;-76
2022/07/24 06:05:37;;;;;;;8.20;7.37;;;;;;;;;;5055580;28;20831;-76
2022/07/24 06:08:03;;;;;;;7.10;6.50;;;;;;;;;;5055489;28;20853;-75
2022/07/24 06:10:29;;;;;;;7.30;6.60;;;;;;;;;;5055601;28;20876;-75
2022/07/24 06:12:55;;;;;;;8.33;7.13;;;;;;;;;;5055507;28;20462;-76
2022/07/24 06:15:21;;;;;;;7.90;6.47;;;;;;;;;;5055621;28;20498;-75
2022/07/24 06:17:47;;;;;;;9.10;7.13;;;;;;;;;;5055379;28;20490;-76
2022/07/24 06:20:16;;;;;;;10.57;7.17;;;;;;;;;;5055257;28;20409;-75
2022/07/24 06:22:42;;;;;;;7.60;6.17;;;;;;;;;;5054675;28;20473;-75
2022/07/24 06:25:08;;;;;;;8.77;6.80;;;;;;;;;;5055221;28;20419;-75
2022/07/24 06:27:34;;;;;;;9.93;7.57;;;;;;;;;;5055168;28;20504;-75
2022/07/24 06:30:00;;;;;;;7.57;6.83;;;;;;;;;;5054798;28;20921;-75
2022/07/24 06:32:26;;;;;;;7.60;6.87;;;;;;;;;;5054687;28;20542;-76
2022/07/24 06:34:52;;;;;;;6.73;6.07;;;;;;;;;;5054916;28;20411;-76
2022/07/24 06:37:18;;;;;;;8.93;7.10;;;;;;;;;;5055140;28;20500;-75
2022/07/24 06:39:44;;;;;;;8.00;6.50;;;;;;;;;;5054764;28;20505;-75
2022/07/24 06:42:10;;;;;;;7.70;6.90;;;;;;;;;;5054657;28;20456;-75
2022/07/24 06:44:38;;;;;;;16.33;7.20;;;;;;;;;;5054326;28;20450;-76
2022/07/24 06:47:04;;;;;;;7.43;6.67;;;;;;;;;;5054905;28;20431;-75
2022/07/24 06:49:30;;;;;;;9.33;6.50;;;;;;;;;;5054654;28;20425;-76
2022/07/24 06:51:56;;;;;;;8.00;7.30;;;;;;;;;;5054422;28;20497;-76
2022/07/24 06:54:22;;;;;;;7.10;6.40;;;;;;;;;;5053547;28;20773;-75
2022/07/24 06:56:48;;;;;;;7.70;5.83;;;;;;;;;;5054194;28;20418;-75
2022/07/24 06:59:14;;;;;;;7.53;6.30;;;;;;;;;;5054276;28;20462;-76
2022/07/24 07:01:40;;;;;;;7.20;6.57;;;;;;;;;;5054517;28;20908;-76
2022/07/24 07:04:06;;;;;;;7.13;6.10;;;;;;;;;;5054219;28;20435;-75
2022/07/24 07:06:32;;;;;;;6.90;6.20;;;;;;;;;;5054125;28;20830;-75
2022/07/24 07:08:58;;;;;;;6.63;5.50;;;;;;;;;;5054221;28;20419;-76
2022/07/24 07:11:24;;;;;;;8.47;7.50;;;;;;;;;;5054203;28;20466;-75
2022/07/24 07:13:50;;;;;;;6.87;5.40;;;;;;;;;;5053757;28;20912;-75
2022/07/24 07:16:16;;;;;;;7.30;6.10;;;;;;;;;;5054138;28;20454;-76
2022/07/24 07:18:42;;;;;;;6.80;6.10;;;;;;;;;;5053994;28;20490;-76
2022/07/24 07:21:08;;;;;;;6.97;6.27;;;;;;;;;;5053962;28;20503;-75
2022/07/24 07:23:34;;;;;;;6.63;5.70;;;;;;;;;;5053659;28;20456;-76
2022/07/24 07:26:00;;;;;;;6.40;5.00;;;;;;;;;;5053889;28;20503;-76
2022/07/24 07:28:26;;;;;;;9.03;6.50;;;;;;;;;;5053862;28;20423;-76
2022/07/24 07:30:52;;;;;;;6.50;5.90;;;;;;;;;;5053892;28;20467;-75
2022/07/24 07:33:18;;;;;;;6.80;5.93;;;;;;;;;;5053414;28;20523;-75
2022/07/24 07:35:44;;;;;;;8.10;5.63;;;;;;;;;;5054001;28;20512;-76
2022/07/24 07:38:10;;;;;;;6.10;5.50;;;;;;;;;;5053879;28;20504;-76
2022/07/24 07:40:36;;;;;;;5.93;5.43;;;;;;;;;;5053686;28;20475;-76
2022/07/24 07:43:02;;;;;;;6.20;5.60;;;;;;;;;;5053304;28;20432;-75
2022/07/24 07:45:28;;;;;;;7.17;6.47;;;;;;;;;;5052321;28;20424;-76
2022/07/24 07:47:54;;;;;;;6.50;5.90;;;;;;;;;;5052519;28;20959;-75
2022/07/24 07:50:20;;;;;;;6.03;5.57;;;;;;;;;;5053505;28;20463;-75
2022/07/24 07:52:46;;;;;;;6.80;5.90;;;;;;;;;;5052836;28;20432;-75
2022/07/24 07:55:12;;;;;;;6.93;6.20;;;;;;;;;;5053505;28;20416;-75
2022/07/24 07:57:41;;;;;;;6.10;5.50;;;;;;;;;;5053475;28;20771;-75
2022/07/24 08:00:07;;;;;;;10.83;6.00;;;;;;;;;;5053343;28;21050;-75
2022/07/24 08:02:33;;;;;;;7.07;6.20;;;;;;;;;;5052939;28;20554;-75
2022/07/24 08:04:59;;;;;;;5.73;5.23;;;;;;;;;;5053186;28;20448;-75
2022/07/24 08:07:25;;;;;;;5.50;4.93;;;;;;;;;;5053611;28;20413;-75
2022/07/24 08:09:51;;;;;;;5.47;4.97;;;;;;;;;;5053604;28;20421;-77
2022/07/24 08:12:17;;;;;;;9.77;5.80;;;;;;;;;;5053071;28;20424;-77
2022/07/24 08:14:43;;;;;;;5.93;5.43;;;;;;;;;;5053242;28;20547;-77
2022/07/24 08:17:09;;;;;;;7.30;5.20;;;;;;;;;;5052342;28;20416;-74
2022/07/24 08:19:35;;;;;;;8.20;5.67;;;;;;;;;;5053344;28;20421;-75
2022/07/24 08:22:01;;;;;;;5.90;5.30;;;;;;;;;;5051965;28;20897;-77
2022/07/24 08:24:27;;;;;;;6.00;4.53;;;;;;;;;;5052743;28;20432;-77
2022/07/24 08:26:53;;;;;;;7.17;4.73;;;;;;;;;;5053117;28;20415;-77
2022/07/24 08:29:19;;;;;;;5.97;5.40;;;;;;;;;;5053085;28;20769;-75
2022/07/24 08:31:45;;;;;;;6.40;5.80;;;;;;;;;;5053014;28;20956;-78
2022/07/24 08:34:12;;;;;;;6.27;5.10;;;;;;;;;;5052621;28;20489;-77
2022/07/24 08:36:38;;;;;;;5.97;5.37;;;;;;;;;;5053195;28;20401;-76
2022/07/24 08:39:04;;;;;;;6.10;5.50;;;;;;;;;;5052929;28;20409;-73
2022/07/24 08:41:35;;;;;;;5.93;4.90;;;;;;;;;;5053077;28;20902;-77
2022/07/24 08:44:01;;;;;;;5.87;4.87;;;;;;;;;;5052626;28;20429;-76
2022/07/24 08:46:28;;;;;;;5.43;4.93;;;;;;;;;;5052967;28;20412;-74
2022/07/24 08:48:55;;;;;;;6.20;5.60;;;;;;;;;;5052875;28;20405;-74
2022/07/24 08:51:22;;;;;;;4.90;4.37;;;;;;;;;;5052604;28;20578;-74
2022/07/24 08:53:49;;;;;;;6.80;4.93;;;;;;;;;;5052653;28;20443;-74
2022/07/24 08:56:17;;;;;;;5.67;5.17;;;;;;;;;;5052782;28;20442;-74
2022/07/24 08:58:43;;;;;;;5.33;4.83;;;;;;;;;;5052781;28;20448;-74
2022/07/24 09:01:09;;;;;;;5.43;4.93;;;;;;;;;;5052680;28;20416;-75
2022/07/24 09:03:53;;;;;;;6.20;4.97;;;;;;;;;;5052466;28;20962;-75
2022/07/24 09:06:19;;;;;;;5.50;5.00;;;;;;;;;;5053003;28;20805;-75
2022/07/24 09:08:59;;;;;;;8.67;5.30;;;;;;;;;;5052738;28;20462;-73
2022/07/24 09:11:25;;;;;;;5.50;5.00;;;;;;;;;;5045170;28;20463;-75
2022/07/24 09:16:37;;;;;;;5.80;5.30;;;;;;;;;;5053065;28;20400;-74
2022/07/24 09:19:03;;;;;;;6.13;5.53;;;;;;;;;;5055083;28;20409;-74
2022/07/24 09:21:32;;;;;;;5.07;4.67;;;;;;;;;;5056087;28;20477;-74
2022/07/24 09:24:02;;;;;;;5.10;4.60;;;;;;;;;;5055957;28;20436;-74
2022/07/24 09:26:43;;;;;;;5.30;4.80;;;;;;;;;;5056202;28;20417;-74
2022/07/24 09:29:11;;;;;;;5.90;5.40;;;;;;;;;;5053464;28;20748;-75
2022/07/24 09:31:53;;;;;;;5.57;5.10;;;;;;;;;;5043516;28;20464;-73
2022/07/24 09:34:19;;;;;;;5.57;5.00;;;;;;;;;;5035718;28;20429;-74
2022/07/24 09:37:02;;;;;;;8.87;6.17;;;;;;;;;;5035203;28;20408;-74
2022/07/24 09:39:29;;;;;;;6.30;4.60;;;;;;;;;;5036128;28;20841;-73
2022/07/24 09:41:57;;;;;;;6.77;5.90;;;;;;;;;;5036257;28;20440;-74
2022/07/24 09:44:23;;;;;;;5.30;4.70;;;;;;;;;;5035619;28;20433;-74
2022/07/24 09:46:59;;;;;;;6.07;5.47;;;;;;;;;;5035861;28;20420;-74
2022/07/24 09:49:26;;;;;;;4.60;4.20;;;;;;;;;;5035780;28;20416;-74
2022/07/24 09:52:10;;;;;;;5.53;4.87;;;;;;;;;;5035787;28;20512;-74
2022/07/24 09:54:38;;;;;;;5.13;4.17;;;;;;;;;;5035369;28;20473;-74
2022/07/24 09:57:20;;;;;;;9.07;4.93;;;;;;;;;;5035818;28;20443;-74
2022/07/24 09:59:47;;;;;;;6.07;4.47;;;;;;;;;;5035539;28;20412;-75
2022/07/24 10:02:15;;;;;;;5.37;4.77;;;;;;;;;;5035600;28;20415;-74
2022/07/24 10:04:42;;;;;;;5.90;4.73;;;;;;;;;;5034321;28;20532;-74
2022/07/24 10:07:13;;;;;;;5.47;4.63;;;;;;;;;;5035758;28;20438;-73
2022/07/24 10:09:42;;;;;;;8.03;5.37;;;;;;;;;;5035420;28;20922;-75
2022/07/24 10:12:17;;;;;;;8.67;5.13;;;;;;;;;;5035322;28;20467;-74
2022/07/24 10:14:44;;;;;;;4.80;4.40;;;;;;;;;;5035415;28;20431;-74
2022/07/24 10:17:10;;;;;;;5.80;4.97;;;;;;;;;;5035519;28;20405;-74
2022/07/24 10:19:49;;;;;;;4.13;3.83;;;;;;;;;;5035300;28;20417;-74
2022/07/24 10:22:19;;;;;;;4.00;3.67;;;;;;;;;;5035254;28;20440;-74
2022/07/24 10:24:55;;;;;;;5.53;5.03;;;;;;;;;;5035170;28;20520;-74
2022/07/24 10:27:26;;;;;;;4.80;4.40;;;;;;;;;;5035612;28;20792;-74
2022/07/24 10:29:57;;;;;;;5.03;4.53;;;;;;;;;;5033899;28;20424;-74
2022/07/24 10:32:23;;;;;;;10.43;4.67;;;;;;;;;;5034919;28;20844;-75
2022/07/24 10:34:53;;;;;;;5.23;3.87;;;;;;;;;;5035078;28;20443;-74
2022/07/24 10:37:20;;;;;;;5.27;4.77;;;;;;;;;;5035036;28;20951;-74
2022/07/24 10:39:52;;;;;;;4.57;4.27;;;;;;;;;;5035097;28;20775;-74
2022/07/24 10:42:18;;;;;;;8.97;5.10;;;;;;;;;;5034538;28;20545;-75
2022/07/24 10:44:44;;;;;;;5.47;4.87;;;;;;;;;;5034806;28;20527;-76
2022/07/24 10:47:16;;;;;;;4.70;4.27;;;;;;;;;;5035011;28;20405;-75
2022/07/24 10:49:44;;;;;;;7.07;4.97;;;;;;;;;;5040138;28;20797;-76
2022/07/24 10:52:11;;;;;;;6.60;5.00;;;;;;;;;;5050585;28;20880;-76
2022/07/24 10:54:37;;;;;;;4.43;4.03;;;;;;;;;;5054442;28;20772;-75
2022/07/24 10:57:03;;;;;;;7.30;4.77;;;;;;;;;;5054461;28;20413;-75
2022/07/24 10:59:42;;;;;;;14.17;4.93;;;;;;;;;;5054346;28;20404;-75
2022/07/24 11:02:27;;;;;;;5.73;4.70;;;;;;;;;;5054079;28;20463;-76
2022/07/24 11:05:11;;;;;;;5.43;4.23;;;;;;;;;;5054217;28;20443;-75
2022/07/24 11:07:37;;;;;;;7.90;4.83;;;;;;;;;;5054244;28;20404;-75
2022/07/24 11:10:08;;;;;;;5.53;4.13;;;;;;;;;;5054122;28;20440;-75
2022/07/24 11:12:42;;;;;;;7.60;4.83;;;;;;;;;;5054009;28;20500;-75
2022/07/24 11:17:53;;;;;;;5.30;4.80;;;;;;;;;;5054495;28;20423;-75
2022/07/24 11:20:21;;;;;;;5.90;4.43;;;;;;;;;;5054178;28;20404;-76
2022/07/24 11:22:47;;;;;;;4.90;4.40;;;;;;;;;;5050140;28;20413;-75
2022/07/24 11:25:17;;;;;;;4.80;4.43;;;;;;;;;;5044187;28;20487;-76
2022/07/24 11:28:03;;;;;;;4.73;4.33;;;;;;;;;;5039225;28;20416;-75
2022/07/24 11:30:30;;;;;;;5.20;4.80;;;;;;;;;;5036398;28;20451;-75
2022/07/24 11:32:57;;;;;;;5.73;5.00;;;;;;;;;;5038026;28;20503;-75
2022/07/24 11:35:30;;;;;;;5.80;5.20;;;;;;;;;;5033982;28;20793;-75
2022/07/24 11:37:56;;;;;;;5.13;4.63;;;;;;;;;;5034059;28;20410;-74
2022/07/24 11:40:22;;;;;;;4.83;4.40;;;;;;;;;;5033862;28;20912;-75
2022/07/24 11:42:54;;;;;;;6.33;4.90;;;;;;;;;;5033344;28;20933;-75
2022/07/24 11:45:20;;;;;;;4.60;4.20;;;;;;;;;;5033812;28;20989;-75
2022/07/24 11:47:46;;;;;;;4.03;3.70;;;;;;;;;;5032603;28;20505;-76
2022/07/24 11:50:12;;;;;;;4.30;3.77;;;;;;;;;;5033481;28;20418;-75
2022/07/24 11:52:39;;;;;;;4.40;4.10;;;;;;;;;;5033290;28;20437;-74
2022/07/24 11:55:13;;;;;;;5.07;3.70;;;;;;;;;;5033949;28;20889;-74
2022/07/24 11:57:40;;;;;;;4.90;4.40;;;;;;;;;;5033853;28;20470;-74
2022/07/24 12:00:09;;;;;;;4.57;4.17;;;;;;;;;;5033824;28;20416;-74
2022/07/24 12:02:35;;;;;;;5.60;4.00;;;;;;;;;;5031820;28;20517;-75
2022/07/24 12:05:02;;;;;;;4.33;3.93;;;;;;;;;;5033983;28;20418;-75
2022/07/24 12:07:29;;;;;;;4.67;4.27;;;;;;;;;;5033537;28;20414;-74
2022/07/24 12:09:59;;;;;;;4.83;4.43;;;;;;;;;;5033756;28;20409;-76
2022/07/24 12:12:32;;;;;;;5.20;4.73;;;;;;;;;;5033286;28;20473;-74
2022/07/24 12:15:08;;;;;;;4.30;3.80;;;;;;;;;;5033535;28;20405;-75
2022/07/24 12:17:35;;;;;;;6.27;3.90;;;;;;;;;;5033359;28;20451;-75
2022/07/24 12:20:06;;;;;;;4.70;4.33;;;;;;;;;;5033335;28;20408;-74
2022/07/24 12:22:32;;;;;;;4.77;4.40;;;;;;;;;;5032874;28;20757;-75
2022/07/24 12:24:58;;;;;;;4.17;3.87;;;;;;;;;;5033249;28;20519;-74
2022/07/24 12:27:41;;;;;;;5.60;4.23;;;;;;;;;;5033395;28;20424;-75
2022/07/24 12:30:17;;;;;;;5.70;4.70;;;;;;;;;;5033683;28;20832;-75
2022/07/24 12:33:03;;;;;;;4.83;4.33;;;;;;;;;;5032803;28;20416;-74
2022/07/24 12:35:30;;;;;;;5.20;4.70;;;;;;;;;;5031870;28;20435;-74
2022/07/24 12:37:57;;;;;;;5.47;4.37;;;;;;;;;;5033179;28;20528;-75
2022/07/24 12:40:25;;;;;;;4.83;4.40;;;;;;;;;;5041358;28;20436;-75
2022/07/24 12:43:12;;;;;;;5.03;4.47;;;;;;;;;;5051028;28;20808;-74
2022/07/24 12:45:38;;;;;;;5.83;4.67;;;;;;;;;;5050228;28;20439;-75
2022/07/24 12:48:22;;;;;;;4.50;4.10;;;;;;;;;;5051574;28;20425;-75
2022/07/24 12:51:02;;;;;;;7.87;4.70;;;;;;;;;;5051125;28;20460;-75
2022/07/24 12:53:29;;;;;;;4.80;4.40;;;;;;;;;;5051831;28;20482;-74
2022/07/24 12:56:05;;;;;;;4.70;4.23;;;;;;;;;;5055220;28;20416;-74
2022/07/24 12:58:48;;;;;;;4.33;4.03;;;;;;;;;;5054965;28;20451;-75
2022/07/24 13:01:14;;;;;;;5.57;4.30;;;;;;;;;;5054737;28;20424;-74
2022/07/24 13:03:40;;;;;;;5.17;4.67;;;;;;;;;;5054686;28;20451;-74
2022/07/24 13:06:07;;;;;;;5.00;4.57;;;;;;;;;;5055120;28;20924;-74
2022/07/24 13:08:33;;;;;;;4.80;4.40;;;;;;;;;;5053913;28;20919;-74
2022/07/24 13:10:59;;;;;;;3.93;3.63;;;;;;;;;;5055115;28;20460;-74
2022/07/24 13:13:25;;;;;;;5.57;4.60;;;;;;;;;;5054353;28;20435;-75
2022/07/24 13:15:51;;;;;;;5.30;4.60;;;;;;;;;;5054569;28;20420;-76
2022/07/24 13:18:17;;;;;;;6.23;4.77;;;;;;;;;;5054351;28;20423;-75
2022/07/24 13:20:42;;;;;;;7.87;4.40;;;;;;;;;;5055154;28;20420;-74
2022/07/24 13:23:08;;;;;;;4.70;3.97;;;;;;;;;;5053450;28;20440;-76
2022/07/24 13:25:34;;;;;;;4.70;4.30;;;;;;;;;;5055004;28;20454;-75
2022/07/24 13:28:00;;;;;;;4.53;4.13;;;;;;;;;;5054703;28;20514;-75
2022/07/24 13:30:26;;;;;;;5.13;4.20;;;;;;;;;;5053862;28;20598;-74
2022/07/24 13:32:52;;;;;;;5.23;4.17;;;;;;;;;;5054650;28;20435;-75
2022/07/24 13:35:22;;;;;;;6.30;3.93;;;;;;;;;;5054374;28;20433;-74
2022/07/24 13:37:48;;;;;;;4.43;3.80;;;;;;;;;;5054082;28;20435;-74
2022/07/24 13:40:14;;;;;;;6.23;3.70;;;;;;;;;;5046948;28;20435;-75
2022/07/24 13:42:40;;;;;;;4.83;4.33;;;;;;;;;;5036717;28;20444;-74
2022/07/24 13:45:07;;;;;;;4.50;4.10;;;;;;;;;;5033580;28;20424;-75
2022/07/24 13:47:33;;;;;;;4.10;3.70;;;;;;;;;;5033467;28;20510;-74
2022/07/24 13:49:59;;;;;;;3.83;3.40;;;;;;;;;;5034009;28;20861;-75
2022/07/24 13:52:25;;;;;;;4.20;3.50;;;;;;;;;;5032366;28;20507;-74
2022/07/24 13:54:51;;;;;;;4.10;3.70;;;;;;;;;;5034045;28;20456;-74
2022/07/24 13:57:17;;;;;;;3.73;3.43;;;;;;;;;;5034456;28;20421;-76
2022/07/24 13:59:43;;;;;;;3.87;3.57;;;;;;;;;;5033335;28;20425;-74
2022/07/24 14:02:09;;;;;;;3.87;3.50;;;;;;;;;;5034466;28;20420;-75
2022/07/24 14:04:35;;;;;;;3.73;3.43;;;;;;;;;;5033339;28;20444;-75
2022/07/24 14:07:01;;;;;;;5.27;4.27;;;;;;;;;;5033588;28;20464;-75
2022/07/24 14:09:28;;;;;;;7.70;3.70;;;;;;;;;;5033681;28;20433;-76
2022/07/24 14:11:54;;;;;;;5.03;3.70;;;;;;;;;;5034274;28;20518;-75
2022/07/24 14:14:20;;;;;;;3.70;3.40;;;;;;;;;;5032650;28;20872;-77
2022/07/24 14:16:47;;;;;;;6.33;3.77;;;;;;;;;;5034104;28;20417;-74
2022/07/24 14:19:13;;;;;;;4.57;4.10;;;;;;;;;;5033799;28;20490;-75
2022/07/24 14:21:39;;;;;;;4.20;3.77;;;;;;;;;;5032990;28;20922;-75
2022/07/24 14:24:05;;;;;;;3.83;3.53;;;;;;;;;;5033556;28;20444;-73
2022/07/24 14:26:31;;;;;;;3.63;3.40;;;;;;;;;;5033352;28;20433;-73
2022/07/24 14:28:57;;;;;;;3.90;3.50;;;;;;;;;;5033249;28;20439;-74
2022/07/24 14:31:23;;;;;;;3.60;3.17;;;;;;;;;;5033449;28;20551;-76
2022/07/24 14:33:49;;;;;;;4.37;3.40;;;;;;;;;;5033276;28;20432;-73
2022/07/24 14:36:15;;;;;;;3.63;3.33;;;;;;;;;;5032732;28;20998;-73
2022/07/24 14:38:41;;;;;;;4.37;3.17;;;;;;;;;;5033580;28;20428;-75
2022/07/24 14:41:07;;;;;;;4.00;3.57;;;;;;;;;;5037577;28;20522;-73
2022/07/24 14:43:33;;;;;;;3.70;3.40;;;;;;;;;;5048902;28;21039;-75
2022/07/24 14:45:59;;;;;;;3.20;3.00;;;;;;;;;;5053093;28;20438;-75